Time;durP1;ratioP1;P1;durP2;ratioP2;P2;SDS_P1;SDS_P2;PMS_P1;PMS_P2;Temp;Humidity;BMP_temperature;BMP_pressure;BME280_temperature;BME280_humidity;BME280_pressure;Samples;Min_cycle;Max_cycle;Signal;HPM_P1;HPM_P2
2023/02/23 00:01:17;;;;;;;5.05;4.55;;;;;;;20.26;39.12;101239.22;5018969;28;20872;-80
2023/02/23 00:03:44;;;;;;;4.30;3.90;;;;;;;20.14;39.32;101235.34;5002710;28;20026;-80
2023/02/23 00:06:11;;;;;;;5.22;4.13;;;;;;;20.44;39.03;101258.34;5018158;28;20103;-80
2023/02/23 00:08:37;;;;;;;4.82;3.88;;;;;;;20.42;38.88;101241.81;5015174;28;20053;-80
2023/02/23 00:11:08;;;;;;;4.28;3.70;;;;;;;20.25;38.99;101231.47;5018134;28;20748;-80
2023/02/23 00:13:36;;;;;;;4.75;4.07;;;;;;;20.33;39.20;101248.13;5017788;28;20037;-80
2023/02/23 00:16:07;;;;;;;5.13;3.90;;;;;;;20.29;38.85;101220.41;5020076;28;20048;-79
2023/02/23 00:18:43;;;;;;;5.22;4.55;;;;;;;20.10;39.13;101208.38;5017078;28;20379;-80
2023/02/23 00:21:14;;;;;;;4.32;3.92;;;;;;;20.35;39.14;101240.03;5011197;28;20121;-80
2023/02/23 00:23:41;;;;;;;5.18;4.07;;;;;;;20.11;39.27;101209.25;5018592;28;20032;-80
2023/02/23 00:26:07;;;;;;;5.13;4.45;;;;;;;20.29;39.12;101230.13;5015886;28;20038;-80
2023/02/23 00:28:32;;;;;;;4.55;3.90;;;;;;;20.27;39.15;101238.22;5018554;28;20560;-80
2023/02/23 00:31:02;;;;;;;4.70;4.07;;;;;;;20.27;39.16;101235.59;5016039;28;20084;-79
2023/02/23 00:33:29;;;;;;;4.57;4.15;;;;;;;20.18;38.87;101204.91;5002244;28;20034;-80
2023/02/23 00:35:55;;;;;;;4.97;4.40;;;;;;;20.30;39.15;101226.50;5016619;28;20391;-80
2023/02/23 00:38:20;;;;;;;4.72;4.25;;;;;;;20.00;39.29;101207.78;5015986;28;20049;-80
2023/02/23 00:40:46;;;;;;;4.82;4.32;;;;;;;20.31;39.04;101234.25;5019187;28;20065;-80
2023/02/23 00:43:12;;;;;;;5.10;4.60;;;;;;;19.90;39.16;101172.78;5019516;28;20545;-80
2023/02/23 00:45:37;;;;;;;5.00;4.20;;;;;;;19.87;39.24;101178.44;5016765;28;20424;-80
2023/02/23 00:48:09;;;;;;;4.93;4.15;;;;;;;20.26;39.19;101230.47;5018753;28;20088;-80
2023/02/23 00:50:37;;;;;;;4.57;4.10;;;;;;;20.03;39.16;101214.53;5020773;28;20053;-82
2023/02/23 00:53:03;;;;;;;5.50;4.40;;;;;;;19.80;39.39;101178.31;5014994;28;20037;-81
2023/02/23 00:55:29;;;;;;;5.15;4.65;;;;;;;19.95;39.24;101212.78;5021248;28;20029;-81
2023/02/23 00:57:57;;;;;;;4.97;4.30;;;;;;;20.23;38.95;101239.56;5017979;28;20068;-82
2023/02/23 01:00:24;;;;;;;5.30;4.40;;;;;;;19.90;39.27;101217.72;5022428;28;20149;-81
2023/02/23 01:02:50;;;;;;;5.30;4.70;;;;;;;20.20;39.22;101255.78;5033470;28;20060;-81
2023/02/23 01:05:15;;;;;;;4.57;4.07;;;;;;;20.07;39.44;101247.56;5013084;28;20209;-82
2023/02/23 01:07:45;;;;;;;5.28;4.72;;;;;;;20.08;39.42;101242.09;5023402;28;20037;-81
2023/02/23 01:10:20;;;;;;;5.05;4.40;;;;;;;20.08;39.25;101238.63;5013837;28;20128;-81
2023/02/23 01:12:51;;;;;;;5.70;4.50;;;;;;;19.86;39.25;101206.69;5019519;28;20052;-81
2023/02/23 01:15:18;;;;;;;5.05;4.22;;;;;;;20.15;39.35;101255.50;4999173;28;20048;-81
2023/02/23 01:17:44;;;;;;;5.03;4.38;;;;;;;20.14;39.33;101257.31;5015130;28;20042;-81
2023/02/23 01:20:18;;;;;;;4.65;4.10;;;;;;;19.85;39.60;101226.16;5021574;28;20037;-82
2023/02/23 01:22:47;;;;;;;5.03;4.07;;;;;;;20.02;39.66;101258.66;5018451;28;20033;-81
2023/02/23 01:25:13;;;;;;;5.05;4.30;;;;;;;19.90;39.48;101226.47;5016852;28;20049;-82
2023/02/23 01:27:42;;;;;;;4.95;4.40;;;;;;;19.98;39.45;101251.25;5022396;28;21516;-81
2023/02/23 01:30:13;;;;;;;5.22;4.53;;;;;;;19.79;39.46;101226.88;5012015;28;20037;-81
2023/02/23 01:32:40;;;;;;;5.22;4.20;;;;;;;19.86;39.41;101222.53;4999883;28;20076;-81
2023/02/23 01:35:10;;;;;;;5.13;4.32;;;;;;;19.83;39.48;101212.31;5019715;28;20040;-82
2023/02/23 01:37:37;;;;;;;;;;;;;;;20.09;39.36;101258.78;5020263;28;20041;-81
2023/02/23 01:40:09;;;;;;;5.32;4.65;;;;;;;20.01;39.48;101256.19;5034146;28;19943;-81
2023/02/23 01:42:38;;;;;;;5.72;5.07;;;;;;;19.75;39.59;101228.19;5017333;28;20040;-81
2023/02/23 01:45:39;;;;;;;5.80;4.82;;;;;;;19.90;39.30;101233.59;5027783;28;20043;-81
2023/02/23 01:48:19;;;;;;;5.60;4.22;;;;;;;20.02;39.50;101263.13;5021209;28;20125;-81
2023/02/23 01:50:53;;;;;;;5.05;4.35;;;;;;;19.93;39.75;101262.34;5024290;28;20615;-81
2023/02/23 01:53:22;;;;;;;5.75;4.85;;;;;;;20.02;39.54;101268.41;5023549;28;20098;-81
2023/02/23 01:55:53;;;;;;;5.53;4.93;;;;;;;19.83;40.02;101266.97;5039978;28;20069;-81
2023/02/23 01:58:23;;;;;;;5.32;4.45;;;;;;;19.56;39.75;101216.16;5017991;28;20037;-81
2023/02/23 02:00:53;;;;;;;5.47;4.78;;;;;;;19.58;39.53;101211.56;5022625;28;20053;-81
2023/02/23 02:03:34;;;;;;;5.70;4.45;;;;;;;19.96;39.54;101274.38;5026613;28;20041;-81
2023/02/23 02:06:02;;;;;;;5.10;4.53;;;;;;;19.60;39.87;101233.34;5020021;28;20120;-81
2023/02/23 02:08:30;;;;;;;7.15;4.93;;;;;;;19.49;39.85;101220.44;5022292;28;20029;-81
2023/02/23 02:10:58;;;;;;;;;;;;;;;19.99;39.62;101276.69;5023802;28;20460;-81
2023/02/23 02:13:31;;;;;;;6.32;5.40;;;;;;;19.84;39.89;101277.38;5033358;28;19928;-81
2023/02/23 02:16:41;;;;;;;5.70;4.93;;;;;;;19.79;39.98;101273.59;5022465;28;20041;-81
2023/02/23 02:19:23;;;;;;;;;;;;;;;19.92;39.82;101272.06;4992599;28;20160;-82
2023/02/23 02:22:37;;;;;;;5.53;4.63;;;;;;;19.41;39.97;101206.44;5018787;28;20299;-82
2023/02/23 02:25:18;;;;;;;7.35;5.53;;;;;;;19.78;40.17;101261.38;4998900;28;20041;-82
2023/02/23 02:28:09;;;;;;;6.57;5.38;;;;;;;19.81;40.04;101271.63;5026381;28;20060;-82
2023/02/23 02:31:14;;;;;;;5.93;5.07;;;;;;;19.79;39.91;101274.44;5017423;28;20068;-82
2023/02/23 02:33:57;;;;;;;6.03;5.30;;;;;;;19.82;39.95;101273.25;5022718;28;20037;-82
2023/02/23 02:36:42;;;;;;;6.28;4.97;;;;;;;19.72;40.06;101276.06;5015875;28;20038;-82
2023/02/23 02:39:33;;;;;;;5.68;4.93;;;;;;;19.70;39.90;101251.63;5017635;28;20029;-82
2023/02/23 02:42:17;;;;;;;5.43;4.80;;;;;;;19.75;39.87;101266.97;5027466;28;20029;-81
2023/02/23 02:45:00;;;;;;;5.00;4.45;;;;;;;19.52;40.11;101229.84;5017573;28;20033;-82
2023/02/23 02:47:33;;;;;;;6.65;4.75;;;;;;;19.57;40.08;101228.41;5041145;28;20488;-82
2023/02/23 02:50:09;;;;;;;6.07;4.95;;;;;;;19.70;40.10;101259.56;5023860;28;20038;-82
2023/02/23 02:52:44;;;;;;;5.40;4.90;;;;;;;19.38;40.14;101210.22;5038505;28;20365;-82
2023/02/23 02:55:16;;;;;;;6.15;5.55;;;;;;;19.48;40.28;101239.09;5027739;28;20041;-82
2023/02/23 02:57:45;;;;;;;6.47;5.32;;;;;;;19.67;39.97;101243.22;5024125;28;20045;-82
2023/02/23 04:17:41;;;;;;;6.68;5.15;;;;;;;19.34;40.64;101277.56;5028010;28;20049;-83
2023/02/23 04:20:08;;;;;;;5.57;4.95;;;;;;;19.55;40.52;101295.59;5021457;28;20038;-83
2023/02/23 04:22:34;;;;;;;5.22;4.72;;;;;;;19.32;40.62;101269.00;5017396;28;20045;-83
2023/02/23 04:25:00;;;;;;;5.28;4.78;;;;;;;19.51;40.60;101296.88;5020232;28;20371;-83
2023/02/23 04:27:25;;;;;;;5.43;4.55;;;;;;;19.49;40.56;101297.03;5020685;28;20045;-83
2023/02/23 04:29:51;;;;;;;6.00;5.03;;;;;;;19.58;40.23;101298.75;5013437;28;20123;-83
2023/02/23 04:32:19;;;;;;;6.15;5.00;;;;;;;19.51;40.50;101296.88;5015806;28;20042;-83
2023/02/23 04:34:45;;;;;;;5.22;4.53;;;;;;;19.42;40.63;101293.44;5025653;28;20049;-83
2023/02/23 04:37:11;;;;;;;5.68;5.05;;;;;;;19.26;40.60;101262.56;5016664;28;20489;-83
2023/02/23 04:39:37;;;;;;;6.10;4.90;;;;;;;19.46;40.58;101293.91;5041400;28;20041;-84
2023/02/23 04:42:02;;;;;;;6.13;4.82;;;;;;;19.47;40.71;101300.84;5026277;28;20338;-84
2023/02/23 04:44:28;;;;;;;5.70;5.15;;;;;;;19.51;40.73;101297.69;5019080;28;20048;-83
2023/02/23 04:46:55;;;;;;;5.65;4.70;;;;;;;19.47;40.71;101295.56;5021206;28;20049;-83
2023/02/23 04:49:21;;;;;;;5.93;4.78;;;;;;;19.31;40.62;101272.63;5023041;28;20451;-83
2023/02/23 04:51:47;;;;;;;5.55;4.88;;;;;;;19.38;40.89;101302.66;5017730;28;20119;-83
2023/02/23 04:54:12;;;;;;;5.68;4.78;;;;;;;19.45;40.66;101301.03;5019880;28;20030;-83
2023/02/23 04:56:38;;;;;;;5.55;5.03;;;;;;;19.47;40.61;101304.31;5024835;28;20045;-83
2023/02/23 04:59:04;;;;;;;5.95;4.95;;;;;;;19.21;40.78;101266.66;5021616;28;20038;-83
2023/02/23 05:01:31;;;;;;;6.07;5.47;;;;;;;19.25;40.61;101263.56;5004911;28;20050;-82
2023/02/23 05:03:59;;;;;;;6.18;4.75;;;;;;;19.46;40.83;101307.94;5030844;28;20041;-83
2023/02/23 05:06:24;;;;;;;5.10;4.60;;;;;;;19.26;40.68;101286.34;5022332;28;20191;-81
2023/02/23 05:08:50;;;;;;;5.85;5.05;;;;;;;19.20;40.68;101267.66;5029136;28;20148;-82
2023/02/23 05:11:16;;;;;;;5.88;5.10;;;;;;;19.20;40.77;101275.59;5027821;28;20091;-82
2023/02/23 05:13:41;;;;;;;6.32;5.10;;;;;;;19.17;40.75;101274.09;5023938;28;20495;-83
2023/02/23 05:16:07;;;;;;;5.65;4.72;;;;;;;19.18;40.93;101277.56;5014322;28;20518;-83
2023/02/23 05:18:33;;;;;;;6.43;4.70;;;;;;;19.43;40.76;101308.28;5029075;28;20045;-82
2023/02/23 05:21:06;;;;;;;6.10;4.93;;;;;;;19.21;40.69;101282.50;5025887;28;20087;-82
2023/02/23 05:23:34;;;;;;;4.97;4.47;;;;;;;19.44;40.76;101317.84;5022685;28;20468;-82
2023/02/23 05:26:03;;;;;;;5.82;4.70;;;;;;;19.26;40.79;101291.59;5026137;28;20034;-83
2023/02/23 05:28:32;;;;;;;5.15;4.63;;;;;;;19.17;41.10;101297.03;5022732;28;20061;-83
2023/02/23 05:30:57;;;;;;;5.60;4.75;;;;;;;19.46;40.77;101320.34;5025830;28;20615;-83
2023/02/23 05:33:23;;;;;;;4.78;4.28;;;;;;;19.00;41.15;101269.78;5020836;28;20087;-83
2023/02/23 05:35:48;;;;;;;5.38;4.28;;;;;;;19.39;40.83;101333.38;5021413;28;20025;-83
2023/02/23 05:38:14;;;;;;;5.07;4.57;;;;;;;19.13;40.82;101295.72;5020818;28;20041;-83
2023/02/23 05:40:40;;;;;;;6.13;5.10;;;;;;;19.18;40.91;101301.31;5028802;28;20036;-82
2023/02/23 05:43:06;;;;;;;5.72;4.57;;;;;;;19.16;40.91;101303.31;5029460;28;20056;-83
2023/02/23 05:45:32;;;;;;;5.15;4.60;;;;;;;19.44;40.61;101331.06;5026997;28;20089;-83
2023/02/23 05:47:58;;;;;;;4.88;3.97;;;;;;;19.39;40.47;101306.13;5021684;28;20046;-83
2023/02/23 05:50:23;;;;;;;4.55;4.00;;;;;;;19.42;40.38;101311.91;5010104;28;20096;-83
2023/02/23 05:52:51;;;;;;;5.03;4.53;;;;;;;19.52;40.57;101328.41;5030605;28;20037;-83
2023/02/23 05:55:16;;;;;;;5.25;4.07;;;;;;;19.54;40.48;101329.09;5023291;28;20046;-83
2023/02/23 05:57:42;;;;;;;4.55;4.15;;;;;;;19.30;40.50;101294.75;5021663;28;20092;-83
2023/02/23 06:00:09;;;;;;;4.75;4.05;;;;;;;19.32;40.60;101308.59;5022041;28;20030;-84
2023/02/23 06:02:35;;;;;;;4.63;4.03;;;;;;;19.50;40.44;101332.22;5025531;28;20042;-83
2023/02/23 06:05:01;;;;;;;4.90;4.28;;;;;;;19.31;40.30;101302.50;5026738;28;20526;-82
2023/02/23 06:07:26;;;;;;;4.88;4.38;;;;;;;19.22;40.64;101297.41;5026442;28;20041;-82
2023/02/23 06:09:52;;;;;;;4.65;4.03;;;;;;;19.48;40.46;101329.72;5022115;28;20045;-82
2023/02/23 06:12:17;;;;;;;4.43;3.90;;;;;;;19.45;40.15;101316.03;5019206;28;20050;-83
2023/02/23 06:14:43;;;;;;;5.03;3.80;;;;;;;19.62;40.39;101344.13;5027008;28;20021;-83
2023/02/23 06:17:09;;;;;;;3.83;3.42;;;;;;;19.41;40.40;101314.72;5023944;28;20036;-82
2023/02/23 06:19:34;;;;;;;4.80;4.30;;;;;;;19.55;40.38;101341.31;5025216;28;20849;-83
2023/02/23 06:22:00;;;;;;;4.10;3.70;;;;;;;19.35;40.40;101312.72;5030533;28;20030;-82
2023/02/23 06:24:25;;;;;;;4.05;3.50;;;;;;;19.34;40.22;101303.97;5009716;28;20056;-83
2023/02/23 06:26:51;;;;;;;3.90;3.47;;;;;;;19.57;40.21;101314.75;5026057;28;20156;-83
2023/02/23 06:29:17;;;;;;;4.88;3.60;;;;;;;19.81;39.78;101333.22;5024363;28;20041;-83
2023/02/23 06:31:42;;;;;;;4.60;3.55;;;;;;;19.65;40.00;101332.41;5025374;28;20042;-82
2023/02/23 06:34:09;;;;;;;3.88;3.42;;;;;;;19.64;40.03;101334.22;5022907;28;20099;-83
2023/02/23 06:36:35;;;;;;;4.43;3.50;;;;;;;19.50;40.12;101322.47;5006289;28;20048;-83
2023/02/23 06:39:02;;;;;;;3.42;3.10;;;;;;;19.82;39.95;101363.13;5019479;28;20047;-83
2023/02/23 06:41:27;;;;;;;4.00;3.58;;;;;;;19.54;39.71;101320.34;5020978;28;20706;-83
2023/02/23 06:43:53;;;;;;;4.28;3.53;;;;;;;19.44;39.98;101309.94;5027509;28;20033;-83
2023/02/23 06:46:18;;;;;;;3.80;3.30;;;;;;;19.61;40.01;101337.22;5022184;28;20523;-83
2023/02/23 06:48:44;;;;;;;4.47;3.70;;;;;;;19.81;39.86;101374.69;5021161;28;20064;-84
2023/02/23 06:51:10;;;;;;;3.70;3.20;;;;;;;19.57;40.06;101341.19;5023594;28;20075;-84
2023/02/23 06:53:35;;;;;;;3.55;3.10;;;;;;;19.74;39.93;101360.47;5021364;28;20045;-82
2023/02/23 06:56:03;;;;;;;3.90;3.40;;;;;;;19.40;40.09;101326.28;5021898;28;20049;-83
2023/02/23 06:58:29;;;;;;;3.92;3.53;;;;;;;19.67;40.02;101370.88;5024445;28;20148;-82
2023/02/23 07:00:55;;;;;;;3.40;3.10;;;;;;;19.70;40.00;101367.06;5026800;28;20819;-83
2023/02/23 07:03:22;;;;;;;3.92;3.10;;;;;;;19.56;40.07;101358.81;5020075;28;20061;-83
2023/02/23 07:05:49;;;;;;;3.97;3.50;;;;;;;19.76;40.09;101396.31;5021851;28;20032;-82
2023/02/23 07:08:17;;;;;;;3.30;3.00;;;;;;;19.62;40.17;101389.06;5025831;28;20405;-82
2023/02/23 07:10:43;;;;;;;3.50;3.00;;;;;;;19.65;40.17;101378.16;5026093;28;20029;-83
2023/02/23 07:13:08;;;;;;;3.33;2.80;;;;;;;19.47;40.13;101367.72;5028800;28;20033;-82
2023/02/23 07:15:38;;;;;;;3.10;2.80;;;;;;;19.48;40.05;101356.16;5017871;28;20091;-83
2023/02/23 07:18:04;;;;;;;3.35;2.83;;;;;;;19.47;40.01;101357.13;5018737;28;20480;-82
2023/02/23 07:20:30;;;;;;;3.72;3.20;;;;;;;20.37;38.89;101405.50;5023105;28;20044;-82
2023/02/23 07:22:56;;;;;;;3.63;3.15;;;;;;;20.99;37.84;101391.53;5024552;28;20042;-83
2023/02/23 07:25:22;;;;;;;3.20;2.75;;;;;;;21.55;36.72;101411.63;5025408;28;20049;-83
2023/02/23 07:27:48;;;;;;;3.88;2.90;;;;;;;21.64;36.46;101415.84;5024124;28;20040;-83
2023/02/23 07:30:14;;;;;;;3.35;2.97;;;;;;;21.46;36.58;101396.75;5025702;28;20097;-82
2023/02/23 07:32:40;;;;;;;3.10;2.80;;;;;;;21.26;36.83;101380.50;5023299;28;20665;-82
2023/02/23 07:35:06;;;;;;;3.17;2.50;;;;;;;21.37;37.10;101419.84;5014825;28;20416;-80
2023/02/23 07:37:32;;;;;;;3.03;2.72;;;;;;;21.05;37.45;101385.56;5039669;28;20059;-81
2023/02/23 07:39:58;;;;;;;3.85;3.10;;;;;;;21.03;37.55;101403.47;5006069;28;20751;-82
2023/02/23 07:42:23;;;;;;;3.00;2.70;;;;;;;20.80;37.92;101393.63;5019031;28;20064;-82
2023/02/23 07:44:49;;;;;;;2.97;2.60;;;;;;;20.72;38.52;101406.06;5019900;28;20772;-82
2023/02/23 07:47:14;;;;;;;3.40;2.65;;;;;;;20.71;38.60;101442.31;5017679;28;20174;-82
2023/02/23 07:49:40;;;;;;;2.90;2.55;;;;;;;20.63;38.75;101444.97;5022165;28;20029;-81
2023/02/23 07:52:05;;;;;;;2.33;2.13;;;;;;;20.59;39.08;101448.13;5018946;28;20054;-83
2023/02/23 07:54:32;;;;;;;2.90;2.60;;;;;;;20.26;39.42;101419.06;5023795;28;20667;-83
2023/02/23 07:56:58;;;;;;;2.40;2.20;;;;;;;20.36;39.44;101453.28;5022108;28;20029;-82
2023/02/23 07:59:23;;;;;;;2.67;2.47;;;;;;;20.18;39.32;101421.72;5021375;28;20116;-81
2023/02/23 08:01:50;;;;;;;2.72;2.38;;;;;;;20.27;39.70;101454.25;5021038;28;20104;-82
2023/02/23 08:04:16;;;;;;;2.80;2.50;;;;;;;20.31;39.71;101461.72;5015304;28;20102;-82
2023/02/23 08:06:41;;;;;;;2.53;2.33;;;;;;;19.98;39.75;101433.66;5016991;28;20559;-82
2023/02/23 08:09:07;;;;;;;2.92;2.70;;;;;;;20.09;39.75;101443.88;5014329;28;20037;-81
2023/02/23 08:11:32;;;;;;;2.42;2.22;;;;;;;19.82;39.59;101406.22;5015168;28;20491;-82
2023/02/23 08:13:59;;;;;;;3.25;2.72;;;;;;;20.18;39.79;101459.56;5023932;28;20037;-82
2023/02/23 08:16:29;;;;;;;2.67;2.30;;;;;;;20.03;39.79;101433.97;5020041;28;20041;-83
2023/02/23 08:18:58;;;;;;;;;;;;;;;20.16;40.03;101463.38;5020647;28;20095;-83
2023/02/23 08:21:24;;;;;;;2.50;2.17;;;;;;;19.88;39.81;101424.06;5019253;28;19924;-83
2023/02/23 08:23:50;;;;;;;2.92;2.53;;;;;;;19.83;39.83;101423.72;5017465;28;20388;-82
2023/02/23 08:26:15;;;;;;;2.58;2.38;;;;;;;20.12;39.82;101457.59;5013516;28;20042;-81
2023/02/23 08:28:44;;;;;;;3.22;2.40;;;;;;;19.94;39.73;101440.25;5017653;28;20083;-82
2023/02/23 08:31:13;;;;;;;2.38;2.17;;;;;;;20.15;39.79;101474.94;5018347;28;20054;-82
2023/02/23 08:33:39;;;;;;;2.00;1.88;;;;;;;20.06;39.79;101474.13;5017451;28;20705;-82
2023/02/23 08:36:06;;;;;;;2.40;2.20;;;;;;;20.06;39.85;101471.47;5019827;28;20041;-82
2023/02/23 08:38:31;;;;;;;2.20;2.00;;;;;;;20.02;40.00;101459.56;5017725;28;20054;-82
2023/02/23 08:41:00;;;;;;;2.22;1.98;;;;;;;20.16;39.65;101476.59;5018021;28;20087;-82
2023/02/23 08:43:26;;;;;;;2.42;1.95;;;;;;;19.87;39.78;101442.72;5025690;28;20045;-82
2023/02/23 08:45:52;;;;;;;2.15;1.98;;;;;;;19.96;39.65;101454.13;5025882;28;20026;-82
2023/02/23 08:48:18;;;;;;;2.20;2.00;;;;;;;20.00;39.75;101464.22;5027580;28;20652;-82
2023/02/23 08:50:43;;;;;;;2.08;1.88;;;;;;;20.12;39.73;101480.56;5021766;28;20037;-81
2023/02/23 08:53:09;;;;;;;1.95;1.75;;;;;;;20.07;39.60;101467.00;5029014;28;20041;-80
2023/02/23 08:55:37;;;;;;;2.30;2.10;;;;;;;20.59;38.37;101464.81;5022002;28;20049;-80
2023/02/23 08:58:02;;;;;;;2.38;2.17;;;;;;;21.11;37.64;101488.16;5027445;28;20489;-80
2023/02/23 09:00:28;;;;;;;2.05;1.85;;;;;;;20.96;37.52;101455.44;5022591;28;20049;-80
2023/02/23 09:02:53;;;;;;;2.33;1.92;;;;;;;21.06;37.46;101475.44;5024486;28;20050;-81
2023/02/23 09:05:19;;;;;;;1.75;1.60;;;;;;;20.87;37.73;101459.94;5026691;28;20041;-82
2023/02/23 09:07:45;;;;;;;2.53;1.98;;;;;;;20.90;38.28;101495.84;5022712;28;20042;-82
2023/02/23 09:10:18;;;;;;;2.10;1.90;;;;;;;20.44;38.88;101469.16;5022284;28;20029;-83
2023/02/23 09:12:44;;;;;;;2.78;2.10;;;;;;;20.60;38.69;101461.19;5023035;28;20049;-84
2023/02/23 09:15:10;;;;;;;2.63;2.40;;;;;;;20.79;38.56;101497.03;5023350;28;20030;-84
2023/02/23 09:17:36;;;;;;;2.35;2.08;;;;;;;20.40;39.02;101463.34;5023096;28;20549;-82
2023/02/23 09:20:03;;;;;;;2.42;2.22;;;;;;;20.56;39.15;101488.16;5022183;28;20490;-84
2023/02/23 09:22:28;;;;;;;2.45;2.25;;;;;;;20.11;39.49;101465.72;5019640;28;20029;-84
2023/02/23 09:24:54;;;;;;;2.30;2.10;;;;;;;20.32;39.54;101499.56;5020310;28;20025;-85
2023/02/23 09:27:19;;;;;;;1.90;1.80;;;;;;;19.88;39.69;101450.47;5027396;28;20065;-81
2023/02/23 09:29:45;;;;;;;2.92;2.00;;;;;;;20.08;39.67;101476.59;5007046;28;20034;-87
2023/02/23 09:32:11;;;;;;;2.03;1.83;;;;;;;20.12;39.62;101477.94;5023665;28;20908;-87
2023/02/23 09:34:37;;;;;;;2.20;2.00;;;;;;;19.96;39.50;101454.13;5029352;28;20110;-87
2023/02/23 09:37:03;;;;;;;2.35;2.15;;;;;;;19.97;39.48;101461.06;5027240;28;20120;-87
2023/02/23 09:39:29;;;;;;;2.13;1.95;;;;;;;20.03;39.54;101457.75;5026129;28;20041;-86
2023/02/23 09:42:24;;;;;;;2.40;2.20;;;;;;;20.02;39.56;101479.91;5028959;28;20092;-87
2023/02/23 09:44:53;;;;;;;2.05;1.83;;;;;;;20.20;39.58;101502.53;5023917;28;20141;-86
2023/02/23 09:47:32;;;;;;;2.03;1.87;;;;;;;19.96;39.58;101470.00;5022401;28;20088;-86
2023/02/23 09:50:01;;;;;;;2.78;2.00;;;;;;;20.05;39.47;101488.31;5036083;28;20052;-84
2023/02/23 09:52:42;;;;;;;2.27;2.00;;;;;;;20.01;39.69;101478.25;5029077;28;20187;-86
2023/02/23 09:55:11;;;;;;;2.42;2.22;;;;;;;20.25;39.45;101509.16;5031123;28;20033;-86
2023/02/23 09:57:41;;;;;;;1.92;1.83;;;;;;;20.10;39.27;101490.47;5024575;28;20038;-87
2023/02/23 10:00:26;;;;;;;2.00;1.88;;;;;;;20.19;39.40;101516.75;5031111;28;20025;-87
2023/02/23 10:02:58;;;;;;;2.40;2.20;;;;;;;20.23;39.42;101517.25;5023943;28;20693;-86
2023/02/23 10:05:30;;;;;;;2.28;2.08;;;;;;;20.17;39.41;101525.84;5024678;28;20046;-86
2023/02/23 10:08:06;;;;;;;1.70;1.60;;;;;;;20.01;39.44;101488.81;5026609;28;20101;-86
2023/02/23 10:11:01;;;;;;;2.50;2.30;;;;;;;20.03;39.56;101502.69;5021088;28;20030;-87
2023/02/23 10:13:52;;;;;;;2.05;1.85;;;;;;;20.08;39.55;101511.78;5009803;28;20522;-85
2023/02/23 10:16:53;;;;;;;2.28;2.08;;;;;;;20.15;39.43;101514.63;5019504;28;21523;-86
2023/02/23 10:19:30;;;;;;;2.40;2.20;;;;;;;20.15;39.42;101519.91;5023912;28;20278;-86
2023/02/23 10:22:01;;;;;;;2.13;1.92;;;;;;;19.96;39.56;101491.97;5021671;28;20063;-87
2023/02/23 10:24:50;;;;;;;2.53;2.13;;;;;;;20.17;39.26;101534.63;5022827;28;20758;-85
2023/02/23 10:27:18;;;;;;;2.20;1.92;;;;;;;19.93;39.36;101497.59;5017787;28;20071;-85
2023/02/23 10:29:44;;;;;;;2.05;1.85;;;;;;;20.14;39.38;101536.75;5025483;28;20139;-85
2023/02/23 10:32:46;;;;;;;2.65;2.28;;;;;;;20.12;39.43;101536.09;5022093;28;20041;-86
2023/02/23 10:35:15;;;;;;;2.50;1.92;;;;;;;20.10;39.33;101519.56;5024819;28;20037;-85
2023/02/23 10:37:41;;;;;;;2.47;2.28;;;;;;;19.91;39.33;101507.47;5021558;28;20071;-85
2023/02/23 10:40:14;;;;;;;2.20;1.90;;;;;;;20.65;38.45;101530.31;5022621;28;20041;-85
2023/02/23 10:42:39;;;;;;;2.30;1.83;;;;;;;20.66;37.74;101486.97;5020513;28;20041;-85
2023/02/23 10:45:23;;;;;;;2.33;1.83;;;;;;;20.84;37.66;101509.78;5019387;28;20041;-86
2023/02/23 10:47:53;;;;;;;1.77;1.67;;;;;;;20.70;38.11;101519.22;5020483;28;20587;-84
2023/02/23 10:50:21;;;;;;;;;;;;;;;20.76;38.22;101534.41;5022696;28;20064;-86
2023/02/23 10:52:49;;;;;;;3.42;2.22;;;;;;;20.65;38.27;101526.84;5018062;28;20087;-85
2023/02/23 10:55:29;;;;;;;2.40;2.15;;;;;;;20.35;38.81;101520.41;5023046;28;20587;-85
2023/02/23 10:58:03;;;;;;;2.10;1.90;;;;;;;20.49;38.70;101533.00;5006545;28;20053;-85
2023/02/23 11:00:32;;;;;;;2.33;2.13;;;;;;;20.34;38.85;101527.50;5026710;28;20029;-86
2023/02/23 11:03:00;;;;;;;2.65;2.17;;;;;;;20.17;39.24;101508.16;5024357;28;20132;-86
2023/02/23 11:05:45;;;;;;;2.65;2.10;;;;;;;20.10;39.22;101511.63;5023235;28;20076;-86
2023/02/23 11:08:24;;;;;;;1.77;1.67;;;;;;;20.18;39.39;101546.00;5022000;28;20041;-87
2023/02/23 11:10:57;;;;;;;2.80;2.10;;;;;;;20.26;39.28;101546.00;5023142;28;20048;-85
2023/02/23 11:13:36;;;;;;;2.70;2.38;;;;;;;20.23;39.27;101555.09;5002319;28;20103;-84
2023/02/23 11:16:09;;;;;;;2.50;2.10;;;;;;;20.06;39.33;101528.81;5023357;28;21645;-86
2023/02/23 11:18:35;;;;;;;3.35;2.60;;;;;;;20.26;39.18;101563.69;5018369;28;20045;-86
2023/02/23 11:21:02;;;;;;;2.45;2.15;;;;;;;20.10;39.38;101540.69;5020574;28;20037;-85
2023/02/23 11:23:33;;;;;;;2.63;2.05;;;;;;;20.07;39.17;101525.16;5019292;28;20037;-85
2023/02/23 11:26:05;;;;;;;2.72;2.20;;;;;;;19.97;39.22;101516.59;5023751;28;20041;-85
2023/02/23 11:28:39;;;;;;;2.55;2.10;;;;;;;20.18;39.16;101548.66;5022652;28;20037;-85
2023/02/23 11:31:21;;;;;;;2.85;2.22;;;;;;;20.09;39.15;101529.31;5025569;28;20286;-86
2023/02/23 11:33:48;;;;;;;2.80;2.42;;;;;;;19.95;39.07;101526.50;5025132;28;20438;-85
2023/02/23 11:36:23;;;;;;;3.50;2.40;;;;;;;20.26;39.03;101555.75;5021931;28;20052;-86
2023/02/23 11:39:03;;;;;;;3.88;2.85;;;;;;;19.87;39.01;101490.28;5029385;28;20048;-86
2023/02/23 11:41:31;;;;;;;3.53;2.40;;;;;;;20.21;39.09;101553.63;5023977;28;20471;-87
2023/02/23 11:44:00;;;;;;;2.92;2.60;;;;;;;20.31;38.98;101558.75;5018828;28;20037;-86
2023/02/23 11:46:28;;;;;;;3.43;2.70;;;;;;;20.21;39.15;101564.19;5024947;28;20844;-86
2023/02/23 11:49:22;;;;;;;3.58;2.60;;;;;;;20.15;39.13;101556.94;5021259;28;20488;-85
2023/02/23 11:51:50;;;;;;;3.35;2.58;;;;;;;20.25;39.09;101569.97;5014830;28;20042;-87
2023/02/23 11:54:24;;;;;;;2.33;2.13;;;;;;;20.13;38.92;101541.22;5020398;28;20064;-86
2023/02/23 11:56:51;;;;;;;5.50;3.70;;;;;;;20.19;38.92;101545.03;5020414;28;20033;-86
2023/02/23 11:59:20;;;;;;;4.38;2.80;;;;;;;20.16;38.96;101555.94;5026910;28;20088;-86
2023/02/23 12:01:49;;;;;;;4.68;3.17;;;;;;;20.21;39.00;101548.31;5022459;28;20034;-87
2023/02/23 12:04:28;;;;;;;5.20;3.25;;;;;;;20.53;38.29;101550.19;5022375;28;20395;-86
2023/02/23 12:07:15;;;;;;;5.35;3.38;;;;;;;20.66;38.21;101558.44;5036453;28;20041;-87
2023/02/23 12:09:44;;;;;;;4.05;2.85;;;;;;;20.71;37.92;101550.00;5023861;28;20511;-87
2023/02/23 12:12:14;;;;;;;5.03;3.30;;;;;;;20.40;38.33;101521.53;5025123;28;20396;-88
2023/02/23 12:14:53;;;;;;;4.50;3.08;;;;;;;20.39;38.66;101550.81;5022383;28;20041;-88
2023/02/23 12:17:23;;;;;;;4.00;3.10;;;;;;;20.47;38.70;101556.16;5018248;28;20034;-87
2023/02/23 12:20:20;;;;;;;3.72;3.00;;;;;;;20.40;38.83;101563.03;5021581;28;20540;-88
2023/02/23 12:22:52;;;;;;;4.72;3.38;;;;;;;20.36;39.01;101556.44;5016987;28;20078;-87
2023/02/23 12:25:26;;;;;;;4.55;3.25;;;;;;;20.40;38.98;101561.22;5012793;28;20037;-87
2023/02/23 12:28:15;;;;;;;4.30;2.92;;;;;;;20.44;38.92;101559.09;5020112;28;20480;-85
2023/02/23 12:30:43;;;;;;;3.50;2.80;;;;;;;20.40;39.01;101565.69;5022770;28;20089;-86
2023/02/23 12:33:33;;;;;;;3.50;2.67;;;;;;;20.39;39.14;101559.56;5018477;28;20809;-86
2023/02/23 12:36:05;;;;;;;3.35;2.53;;;;;;;20.42;39.18;101561.09;5022675;28;20033;-87
2023/02/23 12:38:53;;;;;;;4.05;3.17;;;;;;;20.33;39.14;101559.41;5023196;28;20057;-88
2023/02/23 12:41:45;;;;;;;5.07;3.03;;;;;;;20.34;39.21;101555.78;5017587;28;20167;-86
2023/02/23 12:44:39;;;;;;;4.88;3.17;;;;;;;20.35;39.13;101555.59;5020799;28;20040;-87
2023/02/23 12:47:46;;;;;;;4.95;3.10;;;;;;;20.30;39.32;101554.47;5022146;28;20539;-86
2023/02/23 12:50:55;;;;;;;4.20;3.10;;;;;;;20.26;39.27;101547.81;5018736;28;20494;-86
2023/02/23 12:53:27;;;;;;;3.03;2.40;;;;;;;20.34;39.12;101553.13;5008094;28;20072;-86
2023/02/23 12:56:03;;;;;;;4.30;3.17;;;;;;;20.32;39.16;101563.88;5020982;28;20452;-86
2023/02/23 12:58:44;;;;;;;4.25;3.10;;;;;;;20.29;39.26;101568.66;5021466;28;20061;-87
2023/02/23 13:01:17;;;;;;;4.93;3.30;;;;;;;20.28;39.21;101564.34;5022478;28;20363;-87